Time;durP1;ratioP1;P1;durP2;ratioP2;P2;SDS_P1;SDS_P2;PMS_P1;PMS_P2;Temp;Humidity;BMP_temperature;BMP_pressure;BME280_temperature;BME280_humidity;BME280_pressure;Samples;Min_cycle;Max_cycle;Signal;HPM_P1;HPM_P2
2022/07/05 00:00:24;;;;;;;;;10.20;10.00;;;;;;;;5307277;27;8775;-68
2022/07/05 00:02:55;;;;;;;;;11.00;9.40;;;;;;;;5295537;28;8809;-68
2022/07/05 00:05:26;;;;;;;;;9.40;8.00;;;;;;;;5287881;28;8781;-67
2022/07/05 00:07:57;;;;;;;;;6.00;5.00;;;;;;;;5272728;27;8848;-68
2022/07/05 00:10:28;;;;;;;;;9.25;8.75;;;;;;;;5290718;27;8784;-68
2022/07/05 00:12:59;;;;;;;;;7.40;7.40;;;;;;;;5290689;27;11329;-68
2022/07/05 00:15:30;;;;;;;;;8.80;7.00;;;;;;;;5290997;27;9552;-68
2022/07/05 00:18:01;;;;;;;;;14.60;10.20;;;;;;;;5294321;27;8764;-69
2022/07/05 00:20:50;;;;;;;;;9.75;9.00;;;;;;;;5271091;28;8780;-68
2022/07/05 00:23:21;;;;;;;;;9.50;7.75;;;;;;;;5270653;28;9500;-69
2022/07/05 00:25:53;;;;;;;;;8.75;8.00;;;;;;;;5270694;28;9474;-68
2022/07/05 00:28:24;;;;;;;;;6.25;5.75;;;;;;;;5270433;28;8800;-68
2022/07/05 00:30:55;;;;;;;;;7.60;7.00;;;;;;;;5252539;28;8803;-68
2022/07/05 00:33:26;;;;;;;;;5.25;5.25;;;;;;;;5272248;27;8902;-68
2022/07/05 00:35:57;;;;;;;;;6.00;6.00;;;;;;;;5310768;27;8955;-68
2022/07/05 00:38:28;;;;;;;;;7.80;7.80;;;;;;;;5290665;27;8935;-67
2022/07/05 00:41:17;;;;;;;;;7.00;7.00;;;;;;;;5291297;28;9006;-68
2022/07/05 00:44:05;;;;;;;;;22.40;22.20;;;;;;;;5256130;28;8904;-68
2022/07/05 00:46:55;;;;;;;;;40.60;34.40;;;;;;;;5291350;28;8762;-66
2022/07/05 00:49:26;;;;;;;;;68.00;53.40;;;;;;;;5272972;28;8799;-68
2022/07/05 00:51:58;;;;;;;;;61.75;45.50;;;;;;;;5307982;27;8938;-66
2022/07/05 00:54:31;;;;;;;;;49.20;39.40;;;;;;;;5294089;27;8980;-67
2022/07/05 00:57:02;;;;;;;;;25.40;25.00;;;;;;;;5294052;27;8771;-67
2022/07/05 00:59:51;;;;;;;;;3.80;1.00;;;;;;;;5305222;27;8847;-67
2022/07/05 01:02:23;;;;;;;;;16.40;16.20;;;;;;;;5272879;28;8766;-67
2022/07/05 01:04:54;;;;;;;;;9.60;9.60;;;;;;;;5255976;28;8781;-67
2022/07/05 01:07:26;;;;;;;;;8.50;7.50;;;;;;;;5289790;28;8843;-67
2022/07/05 01:09:57;;;;;;;;;9.00;8.00;;;;;;;;5255871;28;8784;-67
2022/07/05 01:12:27;;;;;;;;;7.25;7.25;;;;;;;;5272693;28;8860;-67
2022/07/05 01:15:19;;;;;;;;;5.50;5.50;;;;;;;;5290790;28;8806;-67
2022/07/05 01:17:51;;;;;;;;;6.50;6.50;;;;;;;;5272559;28;8858;-67
2022/07/05 01:20:22;;;;;;;;;10.25;7.50;;;;;;;;5294398;27;8803;-67
2022/07/05 01:22:54;;;;;;;;;7.00;6.25;;;;;;;;5251161;28;8780;-67
2022/07/05 01:25:44;;;;;;;;;6.60;6.00;;;;;;;;5269413;28;8845;-67
2022/07/05 01:28:15;;;;;;;;;7.40;7.00;;;;;;;;5268728;28;9553;-67
2022/07/05 01:30:46;;;;;;;;;6.00;5.25;;;;;;;;5234458;28;8796;-67
2022/07/05 01:33:17;;;;;;;;;9.50;9.25;;;;;;;;5251338;28;8760;-67
2022/07/05 01:35:48;;;;;;;;;7.75;7.75;;;;;;;;5267251;27;8799;-67
2022/07/05 01:38:19;;;;;;;;;8.33;6.33;;;;;;;;5311521;27;8790;-67
2022/07/05 01:40:51;;;;;;;;;8.00;7.00;;;;;;;;5277453;28;10079;-67
2022/07/05 01:43:23;;;;;;;;;10.25;7.50;;;;;;;;5271668;28;11299;-67
2022/07/05 01:45:54;;;;;;;;;2.00;1.75;;;;;;;;5271957;28;8758;-67
2022/07/05 01:48:28;;;;;;;;;7.50;7.00;;;;;;;;5290033;28;8888;-67
2022/07/05 01:51:08;;;;;;;;;5.25;5.00;;;;;;;;5271824;28;8773;-67
2022/07/05 01:53:39;;;;;;;;;5.25;5.25;;;;;;;;5271808;28;8780;-67
2022/07/05 01:56:10;;;;;;;;;8.75;7.75;;;;;;;;5307492;27;8787;-67
2022/07/05 01:58:41;;;;;;;;;7.75;6.75;;;;;;;;5309675;27;8776;-67
2022/07/05 02:01:12;;;;;;;;;7.33;6.67;;;;;;;;5273884;28;8789;-67
2022/07/05 02:03:44;;;;;;;;;6.50;6.50;;;;;;;;5254515;28;11360;-67
2022/07/05 02:06:15;;;;;;;;;6.50;6.50;;;;;;;;5289574;28;8781;-67
2022/07/05 02:09:06;;;;;;;;;6.75;6.25;;;;;;;;5289743;28;8766;-67
2022/07/05 02:11:38;;;;;;;;;10.75;10.00;;;;;;;;5255193;28;8795;-67
2022/07/05 02:14:09;;;;;;;;;7.75;7.00;;;;;;;;5254497;27;8794;-67
2022/07/05 02:16:44;;;;;;;;;6.75;6.75;;;;;;;;5289315;28;8866;-67
2022/07/05 02:19:15;;;;;;;;;7.00;6.00;;;;;;;;5273301;27;8757;-69
2022/07/05 02:21:47;;;;;;;;;6.75;5.75;;;;;;;;5292712;27;8771;-67
2022/07/05 02:24:37;;;;;;;;;18.20;16.60;;;;;;;;5310634;27;8760;-67
2022/07/05 02:27:19;;;;;;;;;18.00;18.00;;;;;;;;5292034;27;8775;-67
2022/07/05 02:29:51;;;;;;;;;19.40;18.40;;;;;;;;5310292;27;8804;-67
2022/07/05 02:32:31;;;;;;;;;21.60;21.20;;;;;;;;5292293;27;8779;-67
2022/07/05 02:35:05;;;;;;;;;13.80;13.80;;;;;;;;5251632;27;8800;-66
2022/07/05 02:37:39;;;;;;;;;14.60;14.00;;;;;;;;5291993;27;8788;-66
2022/07/05 02:40:13;;;;;;;;;15.60;15.20;;;;;;;;5259985;28;8780;-67
2022/07/05 02:42:48;;;;;;;;;15.60;14.80;;;;;;;;5265886;28;8804;-67
2022/07/05 02:45:21;;;;;;;;;12.00;12.00;;;;;;;;5283212;28;8776;-67
2022/07/05 02:47:58;;;;;;;;;5.75;5.75;;;;;;;;5249664;28;8926;-67
2022/07/05 02:50:31;;;;;;;;;5.50;5.50;;;;;;;;5250185;28;8772;-67
2022/07/05 02:53:02;;;;;;;;;4.50;3.50;;;;;;;;5283351;28;9534;-67
2022/07/05 02:55:33;;;;;;;;;2.50;2.50;;;;;;;;5267158;28;8847;-66
2022/07/05 02:58:04;;;;;;;;;7.25;6.00;;;;;;;;5249684;28;8760;-66
2022/07/05 03:00:54;;;;;;;;;4.00;3.50;;;;;;;;5299366;27;8788;-67
2022/07/05 03:03:28;;;;;;;;;7.00;7.00;;;;;;;;5291764;27;8808;-67
2022/07/05 03:05:59;;;;;;;;;4.50;4.50;;;;;;;;5291746;27;8791;-66
2022/07/05 03:08:31;;;;;;;;;3.75;3.25;;;;;;;;5309851;27;8894;-67
2022/07/05 03:11:02;;;;;;;;;3.00;3.00;;;;;;;;5297589;27;8790;-67
2022/07/05 03:13:35;;;;;;;;;3.00;3.00;;;;;;;;5253616;28;8774;-66
2022/07/05 03:16:06;;;;;;;;;2.25;2.25;;;;;;;;5270457;28;8933;-67
2022/07/05 03:18:37;;;;;;;;;2.00;2.00;;;;;;;;5270223;28;9611;-66
2022/07/05 03:21:10;;;;;;;;;2.50;2.50;;;;;;;;5270079;28;10158;-67
2022/07/05 03:23:41;;;;;;;;;2.25;2.00;;;;;;;;5288269;28;8890;-67
2022/07/05 03:26:13;;;;;;;;;2.00;2.00;;;;;;;;5253717;28;8850;-67
2022/07/05 03:28:45;;;;;;;;;2.50;2.00;;;;;;;;5266025;28;8828;-66
2022/07/05 03:31:17;;;;;;;;;3.00;3.00;;;;;;;;5264982;28;8802;-67
2022/07/05 03:33:48;;;;;;;;;1.33;1.33;;;;;;;;5266794;28;8790;-68
2022/07/05 03:36:20;;;;;;;;;3.50;2.50;;;;;;;;5283674;28;9003;-68
2022/07/05 03:38:51;;;;;;;;;3.00;3.00;;;;;;;;5286934;28;8759;-68
2022/07/05 03:41:24;;;;;;;;;4.00;3.75;;;;;;;;5284879;28;8790;-68
2022/07/05 03:43:57;;;;;;;;;4.00;4.00;;;;;;;;5268231;28;8770;-68
2022/07/05 03:46:28;;;;;;;;;1.00;1.00;;;;;;;;5266750;28;8804;-68
2022/07/05 03:49:00;;;;;;;;;2.00;2.00;;;;;;;;5266077;28;8811;-68
2022/07/05 03:51:31;;;;;;;;;1.00;1.00;;;;;;;;5269417;28;9488;-68
2022/07/05 03:54:04;;;;;;;;;2.25;2.25;;;;;;;;5289831;28;8794;-68
2022/07/05 03:56:36;;;;;;;;;2.00;1.00;;;;;;;;5274046;28;8801;-68
2022/07/05 03:59:13;;;;;;;;;2.75;2.75;;;;;;;;5258413;28;8797;-68
2022/07/05 04:01:44;;;;;;;;;1.50;1.50;;;;;;;;5290870;28;9472;-68
2022/07/05 04:04:17;;;;;;;;;2.50;2.50;;;;;;;;5290895;28;8790;-68
2022/07/05 04:06:48;;;;;;;;;3.50;3.50;;;;;;;;5291810;28;8942;-68
2022/07/05 04:09:21;;;;;;;;;0.75;0.75;;;;;;;;5290687;28;8786;-68
2022/07/05 04:11:52;;;;;;;;;1.75;1.75;;;;;;;;5290479;28;8781;-69
2022/07/05 04:14:24;;;;;;;;;2.00;2.00;;;;;;;;5281861;28;8899;-68
2022/07/05 04:16:56;;;;;;;;;2.75;2.25;;;;;;;;5252577;28;8847;-68
2022/07/05 04:19:45;;;;;;;;;4.00;4.00;;;;;;;;5270685;28;9549;-68
2022/07/05 04:22:16;;;;;;;;;2.33;2.33;;;;;;;;5270754;28;8775;-68
2022/07/05 04:27:38;;;;;;;;;1.25;1.25;;;;;;;;5271733;28;8796;-66
2022/07/05 04:30:10;;;;;;;;;3.00;3.00;;;;;;;;5309336;27;8822;-69
2022/07/05 04:32:41;;;;;;;;;2.00;2.00;;;;;;;;5294722;27;8784;-66
2022/07/05 04:35:12;;;;;;;;;2.75;2.75;;;;;;;;5250386;28;8800;-67
2022/07/05 04:37:46;;;;;;;;;1.50;1.00;;;;;;;;5293411;27;8879;-67
2022/07/05 04:40:18;;;;;;;;;1.75;1.75;;;;;;;;5252555;28;8764;-68
2022/07/05 04:42:49;;;;;;;;;2.00;1.00;;;;;;;;5273994;27;8787;-66
2022/07/05 04:45:23;;;;;;;;;0.50;0.50;;;;;;;;5277406;27;8784;-66
2022/07/05 04:47:54;;;;;;;;;1.50;0.75;;;;;;;;5302315;27;9536;-68
2022/07/05 04:50:29;;;;;;;;;2.75;2.00;;;;;;;;5273513;27;8814;-70
2022/07/05 04:53:19;;;;;;;;;2.75;2.00;;;;;;;;5269146;28;8776;-67
2022/07/05 04:55:49;;;;;;;;;1.00;1.00;;;;;;;;5269450;28;8807;-68
2022/07/05 04:58:20;;;;;;;;;1.00;1.00;;;;;;;;5251666;28;8794;-67
2022/07/05 05:00:51;;;;;;;;;1.25;0.50;;;;;;;;5268504;28;9484;-67
2022/07/05 05:03:23;;;;;;;;;1.75;1.75;;;;;;;;5237911;28;8808;-68
2022/07/05 05:05:54;;;;;;;;;2.00;2.00;;;;;;;;5272324;28;8778;-69
2022/07/05 05:08:25;;;;;;;;;2.00;2.00;;;;;;;;5263629;27;8803;-69
2022/07/05 05:10:55;;;;;;;;;1.33;1.33;;;;;;;;5291059;27;9802;-69
2022/07/05 05:13:27;;;;;;;;;0.00;0.00;;;;;;;;5250198;28;9290;-72
2022/07/05 05:15:58;;;;;;;;;3.00;3.00;;;;;;;;5266616;28;8847;-68
2022/07/05 05:18:29;;;;;;;;;1.75;1.75;;;;;;;;5266225;28;8820;-68
2022/07/05 05:21:00;;;;;;;;;0.00;0.00;;;;;;;;5282779;28;8788;-71
2022/07/05 05:23:31;;;;;;;;;1.25;1.25;;;;;;;;5248367;28;8953;-68
2022/07/05 05:26:02;;;;;;;;;0.75;0.75;;;;;;;;5248724;28;8795;-70
2022/07/05 05:28:33;;;;;;;;;2.00;2.00;;;;;;;;5266035;28;8802;-70
2022/07/05 05:31:04;;;;;;;;;1.50;1.25;;;;;;;;5256164;28;9673;-71
2022/07/05 05:33:36;;;;;;;;;3.00;2.75;;;;;;;;5273917;28;8793;-71
2022/07/05 05:36:08;;;;;;;;;2.00;2.00;;;;;;;;5268426;27;8825;-70
2022/07/05 05:38:39;;;;;;;;;2.00;1.00;;;;;;;;5272600;28;8821;-70
2022/07/05 05:41:10;;;;;;;;;0.00;0.00;;;;;;;;5287816;28;8774;-70
2022/07/05 05:43:41;;;;;;;;;1.50;1.50;;;;;;;;5288905;27;9752;-69
2022/07/05 05:46:11;;;;;;;;;1.67;1.67;;;;;;;;5291577;27;9006;-69
2022/07/05 05:48:42;;;;;;;;;2.00;1.67;;;;;;;;5278877;28;11425;-69
2022/07/05 05:51:13;;;;;;;;;2.00;2.00;;;;;;;;5286466;28;9837;-69
2022/07/05 05:53:45;;;;;;;;;2.00;1.00;;;;;;;;5288344;28;8789;-68
2022/07/05 05:56:16;;;;;;;;;2.00;2.00;;;;;;;;5288068;28;9190;-70
2022/07/05 05:58:47;;;;;;;;;0.75;0.75;;;;;;;;5287925;28;8800;-69
2022/07/05 06:01:18;;;;;;;;;1.00;1.00;;;;;;;;5267972;27;8786;-68
2022/07/05 06:03:49;;;;;;;;;0.00;0.00;;;;;;;;5268302;28;8813;-69
2022/07/05 06:06:20;;;;;;;;;1.25;1.25;;;;;;;;5289603;28;8805;-68
2022/07/05 06:08:51;;;;;;;;;2.25;1.75;;;;;;;;5254934;28;8773;-68
2022/07/05 06:11:22;;;;;;;;;1.00;1.00;;;;;;;;5289724;28;8774;-68
2022/07/05 06:13:53;;;;;;;;;1.00;1.00;;;;;;;;5270242;28;10555;-68
2022/07/05 06:16:24;;;;;;;;;0.50;0.50;;;;;;;;5289215;28;11207;-68
2022/07/05 06:19:14;;;;;;;;;1.00;1.00;;;;;;;;5289499;28;8762;-69
2022/07/05 06:21:44;;;;;;;;;0.00;0.00;;;;;;;;5290645;27;8842;-68
2022/07/05 06:24:15;;;;;;;;;1.33;1.33;;;;;;;;5270735;28;11489;-68
2022/07/05 06:26:46;;;;;;;;;0.33;0.33;;;;;;;;5282031;27;9124;-69
2022/07/05 06:29:17;;;;;;;;;1.00;1.00;;;;;;;;5310435;27;10361;-69
2022/07/05 06:31:48;;;;;;;;;1.67;1.67;;;;;;;;5299943;27;8915;-70
2022/07/05 06:34:38;;;;;;;;;0.00;0.00;;;;;;;;5275948;27;8848;-69
2022/07/05 06:37:09;;;;;;;;;0.75;0.75;;;;;;;;5289010;28;8786;-69
2022/07/05 06:39:40;;;;;;;;;1.00;1.00;;;;;;;;5289079;28;8770;-69
2022/07/05 06:42:10;;;;;;;;;45.50;39.50;;;;;;;;5270644;28;8766;-70
2022/07/05 06:44:44;;;;;;;;;1.50;1.50;;;;;;;;5268646;27;8793;-71
2022/07/05 06:47:15;;;;;;;;;0.75;0.75;;;;;;;;5269477;28;9524;-70
2022/07/05 06:49:47;;;;;;;;;0.00;0.00;;;;;;;;5258477;27;8763;-70
2022/07/05 06:52:37;;;;;;;;;1.00;1.00;;;;;;;;5286369;27;8766;-71
2022/07/05 06:55:08;;;;;;;;;2.00;2.00;;;;;;;;5253414;28;8796;-70
2022/07/05 06:57:39;;;;;;;;;0.25;0.25;;;;;;;;5270273;28;8807;-68
2022/07/05 07:00:11;;;;;;;;;1.00;1.00;;;;;;;;5287979;28;9969;-70
2022/07/05 07:02:45;;;;;;;;;0.50;0.50;;;;;;;;5286551;28;8794;-70
2022/07/05 07:05:16;;;;;;;;;0.00;0.00;;;;;;;;5286179;28;8770;-69
2022/07/05 07:10:38;;;;;;;;;0.00;0.00;;;;;;;;5270373;28;8846;-69
2022/07/05 07:13:27;;;;;;;;;1.75;1.25;;;;;;;;5288880;28;8770;-69
2022/07/05 07:15:58;;;;;;;;;0.33;0.33;;;;;;;;5253385;28;8820;-69
2022/07/05 07:18:48;;;;;;;;;0.75;0.75;;;;;;;;5270214;28;10600;-69
2022/07/05 07:21:19;;;;;;;;;0.00;0.00;;;;;;;;5288345;28;8802;-69
2022/07/05 07:23:50;;;;;;;;;1.00;1.00;;;;;;;;5288136;28;8970;-69
2022/07/05 07:26:20;;;;;;;;;0.00;0.00;;;;;;;;5269915;28;8920;-69
2022/07/05 07:28:51;;;;;;;;;1.00;1.00;;;;;;;;5269659;28;11395;-69
2022/07/05 07:31:22;;;;;;;;;0.00;0.00;;;;;;;;5288539;28;8940;-69
2022/07/05 07:33:53;;;;;;;;;0.00;0.00;;;;;;;;5270145;28;8766;-69
2022/07/05 07:36:24;;;;;;;;;0.33;0.33;;;;;;;;5270053;28;8805;-69
2022/07/05 07:38:55;;;;;;;;;0.33;0.33;;;;;;;;5304211;28;11299;-69
2022/07/05 07:41:44;;;;;;;;;0.75;0.75;;;;;;;;5288083;28;11365;-69
2022/07/05 07:44:34;;;;;;;;;2.00;2.00;;;;;;;;5273202;28;9511;-69
2022/07/05 07:47:04;;;;;;;;;0.00;0.00;;;;;;;;5270047;28;8765;-69
2022/07/05 07:49:36;;;;;;;;;0.00;0.00;;;;;;;;5304050;28;10136;-69
2022/07/05 07:52:07;;;;;;;;;1.00;1.00;;;;;;;;5287966;28;8777;-69
2022/07/05 07:54:38;;;;;;;;;1.00;1.00;;;;;;;;5269896;28;8842;-69
2022/07/05 07:57:09;;;;;;;;;0.00;0.00;;;;;;;;5270361;28;8797;-69
2022/07/05 07:59:40;;;;;;;;;0.00;0.00;;;;;;;;5253119;28;8797;-69
2022/07/05 08:02:11;;;;;;;;;0.00;0.00;;;;;;;;5235399;28;11346;-69
2022/07/05 08:04:42;;;;;;;;;0.75;0.75;;;;;;;;5286592;28;8805;-69
2022/07/05 08:07:13;;;;;;;;;0.25;0.25;;;;;;;;5284884;28;8788;-68
2022/07/05 08:09:44;;;;;;;;;0.00;0.00;;;;;;;;5252650;28;8794;-69
2022/07/05 08:12:15;;;;;;;;;0.00;0.00;;;;;;;;5288159;28;8781;-68
2022/07/05 08:15:07;;;;;;;;;1.25;1.25;;;;;;;;5271979;28;9638;-69
2022/07/05 08:21:30;;;;;;;;;0.00;0.00;;;;;;;;5287807;28;9608;-69
2022/07/05 08:23:18;;;;;;;;;1.00;1.00;;;;;;;;5269184;28;8777;-70
2022/07/05 08:25:49;;;;;;;;;0.00;0.00;;;;;;;;5288212;28;8782;-69
2022/07/05 08:28:20;;;;;;;;;0.67;0.67;;;;;;;;5248658;28;10469;-68
2022/07/05 08:30:51;;;;;;;;;0.00;0.00;;;;;;;;5264399;28;8941;-70
2022/07/05 08:33:24;;;;;;;;;0.50;0.50;;;;;;;;5255095;28;11366;-69
2022/07/05 08:35:55;;;;;;;;;1.75;1.75;;;;;;;;5239336;28;8930;-70
2022/07/05 08:38:26;;;;;;;;;0.00;0.00;;;;;;;;5269380;28;8907;-69
2022/07/05 08:40:57;;;;;;;;;0.75;0.75;;;;;;;;5268818;28;8795;-69
2022/07/05 08:43:47;;;;;;;;;0.00;0.00;;;;;;;;5269028;28;8752;-69
2022/07/05 08:46:38;;;;;;;;;1.25;1.25;;;;;;;;5269210;28;8834;-69
2022/07/05 08:49:10;;;;;;;;;1.00;1.00;;;;;;;;5235523;28;8765;-71
2022/07/05 08:51:42;;;;;;;;;1.00;1.00;;;;;;;;5251801;28;9619;-70
2022/07/05 08:54:13;;;;;;;;;1.00;1.00;;;;;;;;5251685;28;8784;-70
2022/07/05 08:56:44;;;;;;;;;0.00;0.00;;;;;;;;5268388;28;8788;-70
2022/07/05 08:59:15;;;;;;;;;0.25;0.25;;;;;;;;5269154;28;8772;-69
2022/07/05 09:01:47;;;;;;;;;1.75;1.75;;;;;;;;5269653;28;8886;-69
2022/07/05 09:04:19;;;;;;;;;1.25;1.25;;;;;;;;5266511;28;9557;-70
2022/07/05 09:06:50;;;;;;;;;0.00;0.00;;;;;;;;5274433;28;8808;-72
2022/07/05 09:09:22;;;;;;;;;0.00;0.00;;;;;;;;5246504;28;9903;-69
2022/07/05 09:11:53;;;;;;;;;0.25;0.25;;;;;;;;5256442;28;8769;-69
2022/07/05 09:14:25;;;;;;;;;1.00;1.00;;;;;;;;5281286;28;8782;-71
2022/07/05 09:16:56;;;;;;;;;1.50;1.50;;;;;;;;5234441;28;8801;-69
2022/07/05 09:19:28;;;;;;;;;0.50;0.50;;;;;;;;5269351;28;8867;-70
2022/07/05 09:22:04;;;;;;;;;0.25;0.25;;;;;;;;5234595;28;8832;-69
2022/07/05 09:24:44;;;;;;;;;1.00;1.00;;;;;;;;5285486;28;8794;-70
2022/07/05 09:27:16;;;;;;;;;1.00;1.00;;;;;;;;5265525;28;8857;-70
2022/07/05 09:29:57;;;;;;;;;0.00;0.00;;;;;;;;5266115;28;8844;-69
2022/07/05 09:32:30;;;;;;;;;3.75;3.75;;;;;;;;5266018;28;9488;-69
2022/07/05 09:35:20;;;;;;;;;1.00;1.00;;;;;;;;5256746;28;8825;-69
2022/07/05 09:37:51;;;;;;;;;0.25;0.25;;;;;;;;5288316;28;8797;-71
2022/07/05 09:40:22;;;;;;;;;0.50;0.50;;;;;;;;5253079;28;8786;-71
2022/07/05 09:43:09;;;;;;;;;1.00;1.00;;;;;;;;5283753;28;8821;-69
2022/07/05 09:45:49;;;;;;;;;0.25;0.25;;;;;;;;5276736;28;8829;-69
2022/07/05 09:48:21;;;;;;;;;0.25;0.25;;;;;;;;5252875;28;8800;-70
2022/07/05 09:50:52;;;;;;;;;1.00;1.00;;;;;;;;5285987;28;8797;-70
2022/07/05 09:53:23;;;;;;;;;1.75;1.75;;;;;;;;5288040;28;8786;-70
2022/07/05 09:56:00;;;;;;;;;0.00;0.00;;;;;;;;5284896;28;8864;-70
2022/07/05 09:58:32;;;;;;;;;0.00;0.00;;;;;;;;5246209;28;9798;-71
2022/07/05 10:01:22;;;;;;;;;1.00;1.00;;;;;;;;5245654;28;8795;-71
2022/07/05 10:03:57;;;;;;;;;0.00;0.00;;;;;;;;5261193;28;8904;-70
2022/07/05 10:06:31;;;;;;;;;0.75;0.75;;;;;;;;5247216;28;8800;-71
2022/07/05 10:09:02;;;;;;;;;0.25;0.25;;;;;;;;5266439;28;8803;-70
2022/07/05 10:11:34;;;;;;;;;1.00;1.00;;;;;;;;5248601;28;8800;-71
2022/07/05 10:14:09;;;;;;;;;1.25;1.25;;;;;;;;5265160;28;8823;-71
2022/07/05 10:16:41;;;;;;;;;0.25;0.25;;;;;;;;5284932;28;8987;-71
2022/07/05 10:19:15;;;;;;;;;1.00;1.00;;;;;;;;5252296;28;8806;-71
2022/07/05 10:21:47;;;;;;;;;0.00;0.00;;;;;;;;5286284;28;8816;-71
2022/07/05 10:24:18;;;;;;;;;0.75;0.75;;;;;;;;5250429;28;8839;-71
2022/07/05 10:26:49;;;;;;;;;0.25;0.25;;;;;;;;5252091;28;8813;-70
2022/07/05 10:29:21;;;;;;;;;1.75;1.75;;;;;;;;5302564;27;8925;-69
2022/07/05 10:31:52;;;;;;;;;0.75;0.75;;;;;;;;5273124;27;8803;-72
2022/07/05 10:34:23;;;;;;;;;1.00;1.00;;;;;;;;5306574;27;8836;-70
2022/07/05 10:36:54;;;;;;;;;1.75;1.75;;;;;;;;5272633;27;8811;-70
2022/07/05 10:39:25;;;;;;;;;1.50;1.50;;;;;;;;5285461;27;8751;-69
2022/07/05 10:41:57;;;;;;;;;0.25;0.25;;;;;;;;5282559;28;8798;-70
2022/07/05 10:44:32;;;;;;;;;0.00;0.00;;;;;;;;5232929;28;8780;-69
2022/07/05 10:47:09;;;;;;;;;0.00;0.00;;;;;;;;5232755;28;9633;-70
2022/07/05 10:49:41;;;;;;;;;2.00;2.00;;;;;;;;5233257;28;8820;-69
2022/07/05 10:52:23;;;;;;;;;1.25;1.25;;;;;;;;5216478;28;8756;-69
2022/07/05 10:55:13;;;;;;;;;0.25;0.25;;;;;;;;5233106;28;8782;-69
2022/07/05 10:57:44;;;;;;;;;0.25;0.25;;;;;;;;5257735;28;8770;-68
2022/07/05 11:00:33;;;;;;;;;1.50;1.50;;;;;;;;5289009;28;9551;-69
2022/07/05 11:03:27;;;;;;;;;1.33;1.33;;;;;;;;5278722;28;8784;-69
2022/07/05 11:06:02;;;;;;;;;4.00;4.00;;;;;;;;5268231;28;8787;-69
2022/07/05 11:08:52;;;;;;;;;3.00;3.00;;;;;;;;5253457;28;8774;-70
2022/07/05 11:11:24;;;;;;;;;1.25;1.25;;;;;;;;5270517;28;8750;-69
2022/07/05 11:13:59;;;;;;;;;0.25;0.25;;;;;;;;5270178;28;9469;-69
2022/07/05 11:16:31;;;;;;;;;1.00;1.00;;;;;;;;5248866;28;8843;-68
2022/07/05 11:19:12;;;;;;;;;0.75;0.75;;;;;;;;5249423;28;8772;-69
2022/07/05 11:22:01;;;;;;;;;0.00;0.00;;;;;;;;5232729;28;8772;-69
2022/07/05 11:24:34;;;;;;;;;0.75;0.75;;;;;;;;5288856;28;8800;-70
2022/07/05 11:27:11;;;;;;;;;0.00;0.00;;;;;;;;5253469;28;8904;-69
2022/07/05 11:29:48;;;;;;;;;5.50;5.50;;;;;;;;5253096;28;8801;-70
2022/07/05 11:32:29;;;;;;;;;4.75;4.75;;;;;;;;5236649;28;9191;-70
2022/07/05 11:35:16;;;;;;;;;1.25;1.25;;;;;;;;5295155;27;8772;-70
2022/07/05 11:38:07;;;;;;;;;1.25;1.25;;;;;;;;5293960;27;8776;-68
2022/07/05 11:41:10;;;;;;;;;0.75;0.75;;;;;;;;5281518;27;9582;-68
2022/07/05 11:43:41;;;;;;;;;2.00;2.00;;;;;;;;5295612;28;8774;-69
2022/07/05 11:46:32;;;;;;;;;1.00;1.00;;;;;;;;5256000;28;8758;-68
2022/07/05 11:49:03;;;;;;;;;1.00;1.00;;;;;;;;5279803;28;8891;-69
2022/07/05 11:51:34;;;;;;;;;1.00;1.00;;;;;;;;5285318;28;8762;-69
2022/07/05 11:54:09;;;;;;;;;1.75;1.75;;;;;;;;5269470;28;8912;-69
2022/07/05 11:56:40;;;;;;;;;0.50;0.50;;;;;;;;5252840;28;8786;-69
2022/07/05 11:59:21;;;;;;;;;1.00;1.00;;;;;;;;5275581;28;8786;-69
2022/07/05 12:01:53;;;;;;;;;2.00;2.00;;;;;;;;5236226;28;9085;-70
2022/07/05 12:04:25;;;;;;;;;2.75;2.75;;;;;;;;5264624;28;8780;-69
2022/07/05 12:07:27;;;;;;;;;0.00;0.00;;;;;;;;5246580;28;8766;-70
2022/07/05 12:12:48;;;;;;;;;1.75;1.75;;;;;;;;5273721;28;8777;-69
2022/07/05 12:15:20;;;;;;;;;0.33;0.33;;;;;;;;5237047;28;8913;-70
2022/07/05 12:18:11;;;;;;;;;1.00;1.00;;;;;;;;5286011;28;12168;-70
2022/07/05 12:20:42;;;;;;;;;1.25;1.25;;;;;;;;5254893;28;8864;-70
2022/07/05 12:23:13;;;;;;;;;2.00;2.00;;;;;;;;5246926;27;8784;-70
2022/07/05 12:25:44;;;;;;;;;0.50;0.50;;;;;;;;5263492;28;9214;-72
2022/07/05 12:28:16;;;;;;;;;0.00;0.00;;;;;;;;5250325;28;8796;-69
2022/07/05 12:30:46;;;;;;;;;0.50;0.50;;;;;;;;5267074;28;8812;-70
2022/07/05 12:33:20;;;;;;;;;1.00;1.00;;;;;;;;5268493;28;8835;-70
2022/07/05 12:35:51;;;;;;;;;1.00;1.00;;;;;;;;5297947;27;8808;-69
2022/07/05 12:38:23;;;;;;;;;2.00;2.00;;;;;;;;5290722;27;8831;-71
2022/07/05 12:40:58;;;;;;;;;0.25;0.25;;;;;;;;5275315;27;8789;-70
2022/07/05 12:43:29;;;;;;;;;1.00;1.00;;;;;;;;5259844;28;8799;-71
2022/07/05 12:46:18;;;;;;;;;1.00;1.00;;;;;;;;5267170;28;8784;-69
2022/07/05 12:48:55;;;;;;;;;1.00;1.00;;;;;;;;5268364;28;8799;-70
2022/07/05 12:51:34;;;;;;;;;0.00;0.00;;;;;;;;5250464;28;8791;-69
2022/07/05 13:00:08;;;;;;;;;0.75;0.75;;;;;;;;5256615;28;8797;-70
2022/07/05 13:02:38;;;;;;;;;1.25;1.25;;;;;;;;5281550;27;8784;-71
2022/07/05 13:05:19;;;;;;;;;1.00;1.00;;;;;;;;5283236;27;8775;-71
2022/07/05 13:08:08;;;;;;;;;0.00;0.00;;;;;;;;5298242;27;12062;-71
2022/07/05 13:10:46;;;;;;;;;1.25;1.25;;;;;;;;5273595;28;8785;-71
2022/07/05 13:13:20;;;;;;;;;1.25;1.25;;;;;;;;5237350;28;8913;-71
2022/07/05 13:15:50;;;;;;;;;0.50;0.50;;;;;;;;5270883;28;8821;-71
2022/07/05 13:18:27;;;;;;;;;2.50;2.50;;;;;;;;5270951;28;8866;-71
2022/07/05 13:20:58;;;;;;;;;1.00;1.00;;;;;;;;5268137;28;8801;-71
2022/07/05 13:23:30;;;;;;;;;3.00;3.00;;;;;;;;5263780;27;8807;-70
2022/07/05 13:26:01;;;;;;;;;1.67;1.67;;;;;;;;5291715;27;8791;-71
2022/07/05 13:28:32;;;;;;;;;1.00;1.00;;;;;;;;5253816;28;11459;-71
2022/07/05 13:31:03;;;;;;;;;0.75;0.75;;;;;;;;5230395;28;10502;-71
2022/07/05 13:33:34;;;;;;;;;1.75;1.75;;;;;;;;5268283;28;8830;-70
2022/07/05 13:36:05;;;;;;;;;1.67;1.67;;;;;;;;5269922;28;8913;-69
2022/07/05 13:38:36;;;;;;;;;0.00;0.00;;;;;;;;5269566;28;8806;-70
2022/07/05 13:41:07;;;;;;;;;0.75;0.75;;;;;;;;5250787;28;8783;-70
2022/07/05 13:43:56;;;;;;;;;1.25;1.25;;;;;;;;5267664;28;8789;-68
2022/07/05 13:46:27;;;;;;;;;1.25;1.25;;;;;;;;5267258;28;9570;-68
2022/07/05 13:48:58;;;;;;;;;2.00;2.00;;;;;;;;5268710;28;8791;-67
2022/07/05 13:51:29;;;;;;;;;1.00;1.00;;;;;;;;5268604;28;8769;-70
2022/07/05 13:54:01;;;;;;;;;1.00;1.00;;;;;;;;5268537;28;9076;-69
2022/07/05 13:56:32;;;;;;;;;0.75;0.75;;;;;;;;5267004;28;8812;-69
2022/07/05 13:59:03;;;;;;;;;2.00;2.00;;;;;;;;5268126;28;8784;-68
2022/07/05 14:01:34;;;;;;;;;1.50;1.50;;;;;;;;5267434;28;8796;-69
2022/07/05 14:04:05;;;;;;;;;1.00;1.00;;;;;;;;5268375;28;8804;-69
2022/07/05 14:06:37;;;;;;;;;1.50;1.50;;;;;;;;5267000;28;8792;-69
2022/07/05 14:09:08;;;;;;;;;1.00;1.00;;;;;;;;5247223;28;8807;-71
2022/07/05 14:11:39;;;;;;;;;1.00;1.00;;;;;;;;5265351;28;8842;-69
2022/07/05 14:14:12;;;;;;;;;0.67;0.67;;;;;;;;5268204;28;8860;-69
2022/07/05 14:16:43;;;;;;;;;0.00;0.00;;;;;;;;5266690;28;11511;-69
2022/07/05 14:19:14;;;;;;;;;1.67;1.67;;;;;;;;5266878;28;8792;-69
2022/07/05 14:21:46;;;;;;;;;1.00;1.00;;;;;;;;5267668;28;10696;-69
2022/07/05 14:24:17;;;;;;;;;1.00;1.00;;;;;;;;5266786;28;11403;-69
2022/07/05 14:26:48;;;;;;;;;0.67;0.67;;;;;;;;5250006;28;8869;-70
2022/07/05 14:29:19;;;;;;;;;2.00;2.00;;;;;;;;5266451;28;11446;-69
2022/07/05 14:32:08;;;;;;;;;0.50;0.50;;;;;;;;5257147;28;10268;-69
2022/07/05 14:34:39;;;;;;;;;2.00;2.00;;;;;;;;5239480;28;8803;-69
2022/07/05 14:37:10;;;;;;;;;1.25;1.25;;;;;;;;5233079;28;8848;-68
2022/07/05 14:39:41;;;;;;;;;2.00;2.00;;;;;;;;5249594;28;8817;-70
2022/07/05 14:42:12;;;;;;;;;2.75;2.75;;;;;;;;5249641;28;9949;-69
2022/07/05 14:44:44;;;;;;;;;2.00;2.00;;;;;;;;5242442;28;8823;-69
2022/07/05 14:47:15;;;;;;;;;4.00;4.00;;;;;;;;5226444;28;8799;-68
2022/07/05 14:49:45;;;;;;;;;1.00;1.00;;;;;;;;5229821;28;8811;-69
2022/07/05 14:52:35;;;;;;;;;2.50;2.50;;;;;;;;5215453;28;11544;-69
2022/07/05 14:55:06;;;;;;;;;1.33;1.33;;;;;;;;5245086;28;8947;-70
2022/07/05 14:57:37;;;;;;;;;0.00;0.00;;;;;;;;5237018;28;9354;-71
2022/07/05 15:00:26;;;;;;;;;0.00;0.00;;;;;;;;5236351;28;8799;-70
2022/07/05 15:02:57;;;;;;;;;0.75;0.75;;;;;;;;5225809;28;8812;-69
2022/07/05 15:05:30;;;;;;;;;0.67;0.67;;;;;;;;5224464;28;8795;-69
2022/07/05 15:08:01;;;;;;;;;3.00;3.00;;;;;;;;5235461;28;10574;-69
2022/07/05 15:10:32;;;;;;;;;0.00;0.00;;;;;;;;5228727;28;8807;-74
2022/07/05 15:13:03;;;;;;;;;1.50;1.50;;;;;;;;5235940;28;11439;-70
2022/07/05 15:15:34;;;;;;;;;2.00;2.00;;;;;;;;5245570;28;8905;-68
2022/07/05 15:18:05;;;;;;;;;2.50;2.50;;;;;;;;5246032;28;8769;-68
2022/07/05 15:20:36;;;;;;;;;1.00;1.00;;;;;;;;5246904;28;8920;-68
2022/07/05 15:23:07;;;;;;;;;2.50;2.50;;;;;;;;5244866;28;8873;-68
2022/07/05 15:25:57;;;;;;;;;0.50;0.50;;;;;;;;5246045;28;8805;-68
2022/07/05 15:28:28;;;;;;;;;1.50;1.50;;;;;;;;5231178;28;8881;-68
2022/07/05 15:30:59;;;;;;;;;2.00;2.00;;;;;;;;5248836;28;8948;-69
2022/07/05 15:33:30;;;;;;;;;1.00;1.00;;;;;;;;5265852;28;8903;-68
2022/07/05 15:36:01;;;;;;;;;2.00;2.00;;;;;;;;5265740;28;8852;-69
2022/07/05 15:38:33;;;;;;;;;4.00;4.00;;;;;;;;5264101;28;8801;-69
2022/07/05 15:41:04;;;;;;;;;5.00;5.00;;;;;;;;5264398;28;11489;-73
2022/07/05 15:43:35;;;;;;;;;3.75;3.75;;;;;;;;5264427;28;8810;-69
2022/07/05 15:46:05;;;;;;;;;0.67;0.67;;;;;;;;5267841;28;8874;-71
2022/07/05 15:48:37;;;;;;;;;3.67;3.67;;;;;;;;5288361;28;12123;-70
2022/07/05 15:51:08;;;;;;;;;0.50;0.50;;;;;;;;5287629;28;9902;-69